sensor_id;sensor_type;location;lat;lon;timestamp;P1;durP1;ratioP1;P2;durP2;ratioP2
5612;SDS011;63463;53.586;9.928;2022-12-18T00:01:36;14.67;;;10.00;;
5612;SDS011;63463;53.586;9.928;2022-12-18T00:04:03;19.33;;;11.57;;
5612;SDS011;63463;53.586;9.928;2022-12-18T00:06:29;20.20;;;12.50;;
5612;SDS011;63463;53.586;9.928;2022-12-18T00:08:56;15.93;;;11.70;;
5612;SDS011;63463;53.586;9.928;2022-12-18T00:11:24;23.90;;;12.63;;
5612;SDS011;63463;53.586;9.928;2022-12-18T00:13:50;16.53;;;11.47;;
5612;SDS011;63463;53.586;9.928;2022-12-18T00:16:18;16.33;;;11.33;;
5612;SDS011;63463;53.586;9.928;2022-12-18T00:18:45;17.63;;;11.07;;
5612;SDS011;63463;53.586;9.928;2022-12-18T00:21:12;16.37;;;11.23;;
5612;SDS011;63463;53.586;9.928;2022-12-18T00:23:39;17.00;;;9.80;;
5612;SDS011;63463;53.586;9.928;2022-12-18T00:26:06;17.33;;;10.20;;
5612;SDS011;63463;53.586;9.928;2022-12-18T00:28:45;20.40;;;11.47;;
5612;SDS011;63463;53.586;9.928;2022-12-18T00:31:15;18.27;;;11.80;;
5612;SDS011;63463;53.586;9.928;2022-12-18T00:33:41;16.93;;;10.70;;
5612;SDS011;63463;53.586;9.928;2022-12-18T00:36:09;19.37;;;10.37;;
5612;SDS011;63463;53.586;9.928;2022-12-18T00:38:36;20.03;;;11.40;;
5612;SDS011;63463;53.586;9.928;2022-12-18T00:41:02;15.43;;;11.70;;
5612;SDS011;63463;53.586;9.928;2022-12-18T00:43:29;13.60;;;10.10;;
5612;SDS011;63463;53.586;9.928;2022-12-18T00:45:55;16.43;;;10.63;;
5612;SDS011;63463;53.586;9.928;2022-12-18T00:48:21;21.97;;;10.83;;
5612;SDS011;63463;53.586;9.928;2022-12-18T00:50:47;18.17;;;10.83;;
5612;SDS011;63463;53.586;9.928;2022-12-18T00:53:13;17.57;;;11.10;;
5612;SDS011;63463;53.586;9.928;2022-12-18T00:55:40;17.20;;;11.20;;
5612;SDS011;63463;53.586;9.928;2022-12-18T00:58:06;18.77;;;11.37;;
5612;SDS011;63463;53.586;9.928;2022-12-18T01:00:32;13.17;;;9.80;;
5612;SDS011;63463;53.586;9.928;2022-12-18T01:02:58;18.27;;;10.70;;
5612;SDS011;63463;53.586;9.928;2022-12-18T01:05:24;17.73;;;10.83;;
5612;SDS011;63463;53.586;9.928;2022-12-18T01:07:50;18.23;;;11.43;;
5612;SDS011;63463;53.586;9.928;2022-12-18T01:10:16;17.30;;;11.13;;
5612;SDS011;63463;53.586;9.928;2022-12-18T01:12:42;15.17;;;10.03;;
5612;SDS011;63463;53.586;9.928;2022-12-18T01:15:09;14.70;;;10.53;;
5612;SDS011;63463;53.586;9.928;2022-12-18T01:17:35;19.53;;;11.93;;
5612;SDS011;63463;53.586;9.928;2022-12-18T01:20:01;17.73;;;10.17;;
5612;SDS011;63463;53.586;9.928;2022-12-18T01:22:27;17.60;;;11.30;;
5612;SDS011;63463;53.586;9.928;2022-12-18T01:24:53;20.63;;;10.83;;
5612;SDS011;63463;53.586;9.928;2022-12-18T01:27:19;13.83;;;10.07;;
5612;SDS011;63463;53.586;9.928;2022-12-18T01:29:45;12.70;;;10.63;;
5612;SDS011;63463;53.586;9.928;2022-12-18T01:32:11;14.43;;;9.60;;
5612;SDS011;63463;53.586;9.928;2022-12-18T01:34:37;14.87;;;11.37;;
5612;SDS011;63463;53.586;9.928;2022-12-18T01:37:06;26.73;;;11.40;;
5612;SDS011;63463;53.586;9.928;2022-12-18T01:39:32;18.20;;;11.23;;
5612;SDS011;63463;53.586;9.928;2022-12-18T01:41:59;20.33;;;10.80;;
5612;SDS011;63463;53.586;9.928;2022-12-18T01:47:18;19.53;;;10.77;;
5612;SDS011;63463;53.586;9.928;2022-12-18T01:49:45;16.80;;;10.90;;
5612;SDS011;63463;53.586;9.928;2022-12-18T01:52:11;21.00;;;10.03;;
5612;SDS011;63463;53.586;9.928;2022-12-18T01:54:37;16.40;;;10.83;;
5612;SDS011;63463;53.586;9.928;2022-12-18T01:57:03;22.07;;;12.30;;
5612;SDS011;63463;53.586;9.928;2022-12-18T01:59:29;16.33;;;11.53;;
5612;SDS011;63463;53.586;9.928;2022-12-18T02:01:57;14.23;;;9.90;;
5612;SDS011;63463;53.586;9.928;2022-12-18T02:04:24;15.80;;;10.43;;
5612;SDS011;63463;53.586;9.928;2022-12-18T02:06:51;12.97;;;9.40;;
5612;SDS011;63463;53.586;9.928;2022-12-18T02:09:21;17.53;;;11.97;;
5612;SDS011;63463;53.586;9.928;2022-12-18T02:11:56;14.50;;;10.30;;
5612;SDS011;63463;53.586;9.928;2022-12-18T02:17:06;14.03;;;9.50;;
5612;SDS011;63463;53.586;9.928;2022-12-18T02:24:42;16.07;;;10.93;;
5612;SDS011;63463;53.586;9.928;2022-12-18T02:27:11;11.13;;;8.50;;
5612;SDS011;63463;53.586;9.928;2022-12-18T02:29:43;13.97;;;10.10;;
5612;SDS011;63463;53.586;9.928;2022-12-18T02:32:13;13.27;;;9.33;;
5612;SDS011;63463;53.586;9.928;2022-12-18T02:34:40;15.37;;;9.47;;
5612;SDS011;63463;53.586;9.928;2022-12-18T02:37:08;11.40;;;9.73;;
5612;SDS011;63463;53.586;9.928;2022-12-18T02:39:35;19.20;;;10.20;;
5612;SDS011;63463;53.586;9.928;2022-12-18T02:42:02;11.40;;;9.67;;
5612;SDS011;63463;53.586;9.928;2022-12-18T02:44:32;11.97;;;10.00;;
5612;SDS011;63463;53.586;9.928;2022-12-18T02:46:58;11.77;;;9.23;;
5612;SDS011;63463;53.586;9.928;2022-12-18T02:57:14;15.03;;;9.40;;
5612;SDS011;63463;53.586;9.928;2022-12-18T03:02:45;11.70;;;10.30;;
5612;SDS011;63463;53.586;9.928;2022-12-18T03:05:22;13.77;;;9.80;;
5612;SDS011;63463;53.586;9.928;2022-12-18T03:07:59;15.30;;;11.37;;
5612;SDS011;63463;53.586;9.928;2022-12-18T03:10:28;11.73;;;10.10;;
5612;SDS011;63463;53.586;9.928;2022-12-18T03:13:13;14.30;;;10.27;;
5612;SDS011;63463;53.586;9.928;2022-12-18T03:15:45;17.50;;;11.30;;
5612;SDS011;63463;53.586;9.928;2022-12-18T03:18:14;22.13;;;11.73;;
5612;SDS011;63463;53.586;9.928;2022-12-18T03:20:42;16.27;;;10.50;;
5612;SDS011;63463;53.586;9.928;2022-12-18T03:23:09;17.07;;;11.03;;
5612;SDS011;63463;53.586;9.928;2022-12-18T03:25:39;21.37;;;11.63;;
5612;SDS011;63463;53.586;9.928;2022-12-18T03:28:05;23.27;;;10.23;;
5612;SDS011;63463;53.586;9.928;2022-12-18T03:30:33;17.67;;;11.30;;
5612;SDS011;63463;53.586;9.928;2022-12-18T03:33:15;17.30;;;10.97;;
5612;SDS011;63463;53.586;9.928;2022-12-18T03:35:44;16.10;;;11.20;;
5612;SDS011;63463;53.586;9.928;2022-12-18T03:38:10;15.27;;;10.03;;
5612;SDS011;63463;53.586;9.928;2022-12-18T03:43:10;10.83;;;9.73;;
5612;SDS011;63463;53.586;9.928;2022-12-18T03:45:37;17.37;;;10.83;;
5612;SDS011;63463;53.586;9.928;2022-12-18T03:48:12;10.33;;;9.30;;
5612;SDS011;63463;53.586;9.928;2022-12-18T03:50:56;18.17;;;10.70;;
5612;SDS011;63463;53.586;9.928;2022-12-18T03:53:25;12.17;;;8.97;;
5612;SDS011;63463;53.586;9.928;2022-12-18T03:55:54;20.73;;;10.50;;
5612;SDS011;63463;53.586;9.928;2022-12-18T03:58:23;13.23;;;10.37;;
5612;SDS011;63463;53.586;9.928;2022-12-18T04:00:50;15.47;;;11.20;;
5612;SDS011;63463;53.586;9.928;2022-12-18T04:03:17;14.30;;;9.93;;
5612;SDS011;63463;53.586;9.928;2022-12-18T04:05:44;14.40;;;10.03;;
5612;SDS011;63463;53.586;9.928;2022-12-18T04:08:11;17.80;;;9.27;;
5612;SDS011;63463;53.586;9.928;2022-12-18T04:10:37;11.83;;;9.83;;
5612;SDS011;63463;53.586;9.928;2022-12-18T04:13:03;11.40;;;8.90;;
5612;SDS011;63463;53.586;9.928;2022-12-18T04:15:29;15.00;;;8.90;;
5612;SDS011;63463;53.586;9.928;2022-12-18T04:17:55;18.00;;;10.03;;
5612;SDS011;63463;53.586;9.928;2022-12-18T04:20:21;19.63;;;10.27;;
5612;SDS011;63463;53.586;9.928;2022-12-18T04:22:47;18.80;;;9.47;;
5612;SDS011;63463;53.586;9.928;2022-12-18T04:25:13;12.93;;;7.90;;
5612;SDS011;63463;53.586;9.928;2022-12-18T04:27:39;11.70;;;8.77;;
5612;SDS011;63463;53.586;9.928;2022-12-18T04:30:05;14.47;;;9.43;;
5612;SDS011;63463;53.586;9.928;2022-12-18T04:32:32;13.07;;;9.47;;
5612;SDS011;63463;53.586;9.928;2022-12-18T04:34:58;14.87;;;9.90;;
5612;SDS011;63463;53.586;9.928;2022-12-18T04:37:24;10.90;;;9.27;;
5612;SDS011;63463;53.586;9.928;2022-12-18T04:39:50;16.90;;;9.53;;
5612;SDS011;63463;53.586;9.928;2022-12-18T04:42:16;12.93;;;9.47;;
5612;SDS011;63463;53.586;9.928;2022-12-18T04:44:42;9.63;;;8.70;;
5612;SDS011;63463;53.586;9.928;2022-12-18T04:47:08;11.00;;;9.03;;
5612;SDS011;63463;53.586;9.928;2022-12-18T04:49:34;13.50;;;9.30;;
5612;SDS011;63463;53.586;9.928;2022-12-18T04:52:00;11.13;;;8.93;;
5612;SDS011;63463;53.586;9.928;2022-12-18T04:54:26;13.37;;;9.17;;
5612;SDS011;63463;53.586;9.928;2022-12-18T04:56:52;10.10;;;9.07;;
5612;SDS011;63463;53.586;9.928;2022-12-18T04:59:18;15.70;;;11.00;;
5612;SDS011;63463;53.586;9.928;2022-12-18T05:01:44;15.93;;;9.60;;
5612;SDS011;63463;53.586;9.928;2022-12-18T05:04:10;11.70;;;8.90;;
5612;SDS011;63463;53.586;9.928;2022-12-18T05:06:36;11.47;;;8.77;;
5612;SDS011;63463;53.586;9.928;2022-12-18T05:09:02;14.20;;;9.67;;
5612;SDS011;63463;53.586;9.928;2022-12-18T05:11:28;12.57;;;9.40;;
5612;SDS011;63463;53.586;9.928;2022-12-18T05:13:54;14.90;;;9.30;;
5612;SDS011;63463;53.586;9.928;2022-12-18T05:16:20;14.90;;;8.80;;
5612;SDS011;63463;53.586;9.928;2022-12-18T05:18:46;14.17;;;9.90;;
5612;SDS011;63463;53.586;9.928;2022-12-18T05:21:12;11.03;;;8.57;;
5612;SDS011;63463;53.586;9.928;2022-12-18T05:23:38;10.77;;;8.77;;
5612;SDS011;63463;53.586;9.928;2022-12-18T05:26:05;15.67;;;9.87;;
5612;SDS011;63463;53.586;9.928;2022-12-18T05:28:31;16.30;;;9.67;;
5612;SDS011;63463;53.586;9.928;2022-12-18T05:30:58;9.70;;;8.67;;
5612;SDS011;63463;53.586;9.928;2022-12-18T05:33:25;10.63;;;8.00;;
5612;SDS011;63463;53.586;9.928;2022-12-18T05:35:55;9.43;;;8.47;;
5612;SDS011;63463;53.586;9.928;2022-12-18T05:38:21;14.73;;;9.40;;
5612;SDS011;63463;53.586;9.928;2022-12-18T05:40:48;15.90;;;9.97;;
5612;SDS011;63463;53.586;9.928;2022-12-18T05:43:14;13.83;;;8.93;;
5612;SDS011;63463;53.586;9.928;2022-12-18T05:45:40;11.93;;;10.13;;
5612;SDS011;63463;53.586;9.928;2022-12-18T05:48:07;10.33;;;8.87;;
5612;SDS011;63463;53.586;9.928;2022-12-18T05:50:34;14.00;;;9.50;;
5612;SDS011;63463;53.586;9.928;2022-12-18T05:53:00;10.83;;;9.70;;
5612;SDS011;63463;53.586;9.928;2022-12-18T05:55:26;11.20;;;9.27;;
5612;SDS011;63463;53.586;9.928;2022-12-18T05:57:53;14.00;;;9.63;;
5612;SDS011;63463;53.586;9.928;2022-12-18T06:00:19;12.13;;;9.63;;
5612;SDS011;63463;53.586;9.928;2022-12-18T06:02:48;31.87;;;11.13;;
5612;SDS011;63463;53.586;9.928;2022-12-18T06:05:14;14.70;;;10.47;;
5612;SDS011;63463;53.586;9.928;2022-12-18T06:07:40;13.67;;;10.60;;
5612;SDS011;63463;53.586;9.928;2022-12-18T06:10:06;11.17;;;10.10;;
5612;SDS011;63463;53.586;9.928;2022-12-18T06:12:32;18.63;;;11.07;;
5612;SDS011;63463;53.586;9.928;2022-12-18T06:15:01;21.10;;;11.90;;
5612;SDS011;63463;53.586;9.928;2022-12-18T06:17:27;15.80;;;10.13;;
5612;SDS011;63463;53.586;9.928;2022-12-18T06:19:54;13.80;;;10.23;;
5612;SDS011;63463;53.586;9.928;2022-12-18T06:22:20;19.53;;;11.43;;
5612;SDS011;63463;53.586;9.928;2022-12-18T06:24:46;13.27;;;9.90;;
5612;SDS011;63463;53.586;9.928;2022-12-18T06:27:12;12.53;;;9.90;;
5612;SDS011;63463;53.586;9.928;2022-12-18T06:29:38;16.13;;;9.43;;
5612;SDS011;63463;53.586;9.928;2022-12-18T06:32:04;12.27;;;10.33;;
5612;SDS011;63463;53.586;9.928;2022-12-18T06:34:31;14.30;;;9.40;;
5612;SDS011;63463;53.586;9.928;2022-12-18T06:36:57;10.63;;;9.30;;
5612;SDS011;63463;53.586;9.928;2022-12-18T06:39:23;13.97;;;10.33;;
5612;SDS011;63463;53.586;9.928;2022-12-18T06:41:49;10.30;;;8.80;;
5612;SDS011;63463;53.586;9.928;2022-12-18T06:44:15;18.87;;;8.97;;
5612;SDS011;63463;53.586;9.928;2022-12-18T06:46:41;10.93;;;9.53;;
5612;SDS011;63463;53.586;9.928;2022-12-18T06:49:07;10.23;;;9.07;;
5612;SDS011;63463;53.586;9.928;2022-12-18T06:51:34;41.07;;;10.57;;
5612;SDS011;63463;53.586;9.928;2022-12-18T06:54:00;12.27;;;9.00;;
5612;SDS011;63463;53.586;9.928;2022-12-18T06:56:26;14.33;;;8.40;;
5612;SDS011;63463;53.586;9.928;2022-12-18T06:58:53;11.20;;;8.60;;
5612;SDS011;63463;53.586;9.928;2022-12-18T07:01:19;13.70;;;9.50;;
5612;SDS011;63463;53.586;9.928;2022-12-18T07:03:45;17.73;;;10.00;;
5612;SDS011;63463;53.586;9.928;2022-12-18T07:06:15;9.67;;;8.77;;
5612;SDS011;63463;53.586;9.928;2022-12-18T07:08:41;10.17;;;8.80;;
5612;SDS011;63463;53.586;9.928;2022-12-18T07:11:07;13.93;;;8.43;;
5612;SDS011;63463;53.586;9.928;2022-12-18T07:13:33;12.40;;;9.27;;
5612;SDS011;63463;53.586;9.928;2022-12-18T07:16:03;16.67;;;10.13;;
5612;SDS011;63463;53.586;9.928;2022-12-18T07:18:29;17.53;;;9.80;;
5612;SDS011;63463;53.586;9.928;2022-12-18T07:20:55;13.97;;;9.73;;
5612;SDS011;63463;53.586;9.928;2022-12-18T07:23:21;16.23;;;9.90;;
5612;SDS011;63463;53.586;9.928;2022-12-18T07:25:47;12.90;;;9.73;;
5612;SDS011;63463;53.586;9.928;2022-12-18T07:28:13;13.50;;;8.87;;
5612;SDS011;63463;53.586;9.928;2022-12-18T07:30:39;9.37;;;8.30;;
5612;SDS011;63463;53.586;9.928;2022-12-18T07:33:05;11.73;;;8.90;;
5612;SDS011;63463;53.586;9.928;2022-12-18T07:35:32;12.30;;;8.93;;
5612;SDS011;63463;53.586;9.928;2022-12-18T07:37:58;14.67;;;8.80;;
5612;SDS011;63463;53.586;9.928;2022-12-18T07:40:25;13.03;;;8.73;;
5612;SDS011;63463;53.586;9.928;2022-12-18T07:42:51;10.30;;;9.20;;
5612;SDS011;63463;53.586;9.928;2022-12-18T07:45:17;11.37;;;8.40;;
5612;SDS011;63463;53.586;9.928;2022-12-18T07:47:43;10.30;;;9.20;;
5612;SDS011;63463;53.586;9.928;2022-12-18T07:50:09;10.83;;;9.73;;
5612;SDS011;63463;53.586;9.928;2022-12-18T07:52:35;13.53;;;9.83;;
5612;SDS011;63463;53.586;9.928;2022-12-18T07:55:01;11.70;;;9.80;;
5612;SDS011;63463;53.586;9.928;2022-12-18T07:57:27;18.97;;;10.10;;
5612;SDS011;63463;53.586;9.928;2022-12-18T07:59:53;15.97;;;10.10;;
5612;SDS011;63463;53.586;9.928;2022-12-18T08:02:19;13.10;;;9.43;;
5612;SDS011;63463;53.586;9.928;2022-12-18T08:04:45;13.37;;;8.50;;
5612;SDS011;63463;53.586;9.928;2022-12-18T08:07:11;15.90;;;8.90;;
5612;SDS011;63463;53.586;9.928;2022-12-18T08:09:37;13.83;;;8.53;;
5612;SDS011;63463;53.586;9.928;2022-12-18T08:12:03;12.60;;;9.80;;
5612;SDS011;63463;53.586;9.928;2022-12-18T08:14:29;13.77;;;9.27;;
5612;SDS011;63463;53.586;9.928;2022-12-18T08:16:55;16.53;;;9.90;;
5612;SDS011;63463;53.586;9.928;2022-12-18T08:19:21;11.50;;;8.10;;
5612;SDS011;63463;53.586;9.928;2022-12-18T08:21:47;13.23;;;9.43;;
5612;SDS011;63463;53.586;9.928;2022-12-18T08:24:13;11.07;;;9.67;;
5612;SDS011;63463;53.586;9.928;2022-12-18T08:26:39;15.70;;;10.10;;
5612;SDS011;63463;53.586;9.928;2022-12-18T08:29:05;18.13;;;9.03;;
5612;SDS011;63463;53.586;9.928;2022-12-18T08:31:31;10.50;;;9.13;;
5612;SDS011;63463;53.586;9.928;2022-12-18T08:33:57;11.87;;;8.17;;
5612;SDS011;63463;53.586;9.928;2022-12-18T08:36:24;13.43;;;9.33;;
5612;SDS011;63463;53.586;9.928;2022-12-18T08:38:50;13.33;;;9.40;;
5612;SDS011;63463;53.586;9.928;2022-12-18T08:41:16;14.27;;;9.83;;
5612;SDS011;63463;53.586;9.928;2022-12-18T08:43:43;13.33;;;9.10;;
5612;SDS011;63463;53.586;9.928;2022-12-18T08:46:27;19.70;;;9.97;;
5612;SDS011;63463;53.586;9.928;2022-12-18T08:48:56;10.30;;;9.27;;
5612;SDS011;63463;53.586;9.928;2022-12-18T08:51:23;11.53;;;9.13;;
5612;SDS011;63463;53.586;9.928;2022-12-18T08:53:49;14.43;;;9.13;;
5612;SDS011;63463;53.586;9.928;2022-12-18T08:56:15;15.33;;;8.80;;
5612;SDS011;63463;53.586;9.928;2022-12-18T08:58:41;9.77;;;8.83;;
5612;SDS011;63463;53.586;9.928;2022-12-18T09:01:08;12.47;;;9.57;;
5612;SDS011;63463;53.586;9.928;2022-12-18T09:03:35;12.10;;;9.20;;
5612;SDS011;63463;53.586;9.928;2022-12-18T09:06:01;17.00;;;9.77;;
5612;SDS011;63463;53.586;9.928;2022-12-18T09:08:27;10.60;;;9.07;;
5612;SDS011;63463;53.586;9.928;2022-12-18T09:10:54;18.90;;;9.90;;
5612;SDS011;63463;53.586;9.928;2022-12-18T09:13:20;13.60;;;10.17;;
5612;SDS011;63463;53.586;9.928;2022-12-18T09:15:53;15.90;;;11.10;;
5612;SDS011;63463;53.586;9.928;2022-12-18T09:18:19;12.83;;;10.20;;
5612;SDS011;63463;53.586;9.928;2022-12-18T09:20:46;27.93;;;11.23;;
5612;SDS011;63463;53.586;9.928;2022-12-18T09:23:12;14.53;;;10.37;;
5612;SDS011;63463;53.586;9.928;2022-12-18T09:25:39;11.17;;;9.50;;
5612;SDS011;63463;53.586;9.928;2022-12-18T09:28:06;12.67;;;9.83;;
5612;SDS011;63463;53.586;9.928;2022-12-18T09:30:32;13.30;;;9.27;;
5612;SDS011;63463;53.586;9.928;2022-12-18T09:32:59;18.60;;;10.87;;
5612;SDS011;63463;53.586;9.928;2022-12-18T09:35:25;28.27;;;10.30;;
5612;SDS011;63463;53.586;9.928;2022-12-18T09:37:53;14.30;;;9.90;;
5612;SDS011;63463;53.586;9.928;2022-12-18T09:40:20;10.60;;;9.40;;
5612;SDS011;63463;53.586;9.928;2022-12-18T09:42:48;13.13;;;9.13;;
5612;SDS011;63463;53.586;9.928;2022-12-18T09:45:17;16.93;;;10.30;;
5612;SDS011;63463;53.586;9.928;2022-12-18T09:47:43;18.17;;;9.73;;
5612;SDS011;63463;53.586;9.928;2022-12-18T09:50:30;11.27;;;9.57;;
5612;SDS011;63463;53.586;9.928;2022-12-18T09:52:58;15.40;;;9.60;;
5612;SDS011;63463;53.586;9.928;2022-12-18T09:55:28;15.67;;;10.70;;
5612;SDS011;63463;53.586;9.928;2022-12-18T09:57:56;13.50;;;10.20;;
5612;SDS011;63463;53.586;9.928;2022-12-18T10:00:24;12.13;;;10.93;;
5612;SDS011;63463;53.586;9.928;2022-12-18T10:02:58;19.10;;;10.53;;
5612;SDS011;63463;53.586;9.928;2022-12-18T10:13:15;17.80;;;11.70;;
5612;SDS011;63463;53.586;9.928;2022-12-18T10:21:19;14.93;;;11.70;;
5612;SDS011;63463;53.586;9.928;2022-12-18T10:24:03;18.27;;;10.20;;
5612;SDS011;63463;53.586;9.928;2022-12-18T10:26:33;15.20;;;9.97;;
5612;SDS011;63463;53.586;9.928;2022-12-18T10:29:00;17.03;;;10.33;;
5612;SDS011;63463;53.586;9.928;2022-12-18T10:31:27;16.63;;;10.10;;
5612;SDS011;63463;53.586;9.928;2022-12-18T10:33:53;18.77;;;10.63;;
5612;SDS011;63463;53.586;9.928;2022-12-18T10:36:20;15.00;;;9.83;;
5612;SDS011;63463;53.586;9.928;2022-12-18T10:38:46;13.57;;;9.53;;
5612;SDS011;63463;53.586;9.928;2022-12-18T10:43:47;14.37;;;10.73;;
5612;SDS011;63463;53.586;9.928;2022-12-18T10:46:17;16.83;;;9.07;;
5612;SDS011;63463;53.586;9.928;2022-12-18T10:48:56;16.10;;;10.43;;
5612;SDS011;63463;53.586;9.928;2022-12-18T10:51:32;14.40;;;9.50;;
5612;SDS011;63463;53.586;9.928;2022-12-18T10:54:04;16.77;;;9.83;;
5612;SDS011;63463;53.586;9.928;2022-12-18T10:56:35;22.40;;;11.20;;
5612;SDS011;63463;53.586;9.928;2022-12-18T10:59:03;14.40;;;10.27;;
5612;SDS011;63463;53.586;9.928;2022-12-18T11:01:49;17.50;;;9.60;;
5612;SDS011;63463;53.586;9.928;2022-12-18T11:04:17;12.80;;;10.50;;
5612;SDS011;63463;53.586;9.928;2022-12-18T11:06:59;13.53;;;9.37;;
5612;SDS011;63463;53.586;9.928;2022-12-18T11:09:26;16.37;;;11.03;;
5612;SDS011;63463;53.586;9.928;2022-12-18T11:11:54;14.97;;;10.13;;
5612;SDS011;63463;53.586;9.928;2022-12-18T11:14:43;13.23;;;10.70;;
5612;SDS011;63463;53.586;9.928;2022-12-18T11:17:17;16.60;;;11.10;;
5612;SDS011;63463;53.586;9.928;2022-12-18T11:19:44;19.37;;;10.40;;
5612;SDS011;63463;53.586;9.928;2022-12-18T11:22:20;10.47;;;9.37;;
5612;SDS011;63463;53.586;9.928;2022-12-18T11:27:26;13.13;;;9.73;;
5612;SDS011;63463;53.586;9.928;2022-12-18T11:29:52;20.47;;;10.43;;
5612;SDS011;63463;53.586;9.928;2022-12-18T11:32:30;12.43;;;10.10;;
5612;SDS011;63463;53.586;9.928;2022-12-18T11:35:10;15.20;;;9.73;;
5612;SDS011;63463;53.586;9.928;2022-12-18T11:37:38;16.40;;;10.27;;
5612;SDS011;63463;53.586;9.928;2022-12-18T11:40:28;15.63;;;10.10;;
5612;SDS011;63463;53.586;9.928;2022-12-18T11:42:58;24.80;;;10.20;;
5612;SDS011;63463;53.586;9.928;2022-12-18T11:45:26;17.53;;;10.40;;
5612;SDS011;63463;53.586;9.928;2022-12-18T11:48:04;12.40;;;9.97;;
5612;SDS011;63463;53.586;9.928;2022-12-18T11:50:33;15.30;;;10.30;;
5612;SDS011;63463;53.586;9.928;2022-12-18T11:53:04;12.97;;;9.43;;
5612;SDS011;63463;53.586;9.928;2022-12-18T12:01:13;16.60;;;10.50;;
5612;SDS011;63463;53.586;9.928;2022-12-18T12:03:46;16.57;;;11.33;;
5612;SDS011;63463;53.586;9.928;2022-12-18T12:06:17;16.70;;;9.67;;
5612;SDS011;63463;53.586;9.928;2022-12-18T12:14:24;13.30;;;8.90;;
5612;SDS011;63463;53.586;9.928;2022-12-18T12:21:50;13.83;;;10.33;;
5612;SDS011;63463;53.586;9.928;2022-12-18T12:32:09;21.87;;;11.77;;
5612;SDS011;63463;53.586;9.928;2022-12-18T12:39:40;17.47;;;11.13;;
5612;SDS011;63463;53.586;9.928;2022-12-18T12:42:13;18.17;;;10.20;;
5612;SDS011;63463;53.586;9.928;2022-12-18T12:44:59;17.47;;;12.07;;
5612;SDS011;63463;53.586;9.928;2022-12-18T12:47:31;24.73;;;12.50;;
5612;SDS011;63463;53.586;9.928;2022-12-18T12:49:58;20.37;;;11.63;;
5612;SDS011;63463;53.586;9.928;2022-12-18T12:52:30;16.37;;;10.07;;
5612;SDS011;63463;53.586;9.928;2022-12-18T12:54:58;22.80;;;12.10;;
5612;SDS011;63463;53.586;9.928;2022-12-18T12:57:32;14.37;;;10.37;;
5612;SDS011;63463;53.586;9.928;2022-12-18T13:00:04;21.37;;;11.30;;
5612;SDS011;63463;53.586;9.928;2022-12-18T13:02:42;27.07;;;12.13;;
5612;SDS011;63463;53.586;9.928;2022-12-18T13:05:16;25.50;;;11.40;;
5612;SDS011;63463;53.586;9.928;2022-12-18T13:13:33;20.20;;;11.60;;
5612;SDS011;63463;53.586;9.928;2022-12-18T13:20:37;18.27;;;11.00;;
5612;SDS011;63463;53.586;9.928;2022-12-18T13:25:51;18.47;;;11.30;;
5612;SDS011;63463;53.586;9.928;2022-12-18T13:28:23;24.53;;;11.50;;
5612;SDS011;63463;53.586;9.928;2022-12-18T13:30:54;28.87;;;12.77;;
5612;SDS011;63463;53.586;9.928;2022-12-18T13:36:32;16.50;;;11.30;;
5612;SDS011;63463;53.586;9.928;2022-12-18T13:38:39;20.17;;;11.67;;
5612;SDS011;63463;53.586;9.928;2022-12-18T13:43:44;25.50;;;12.63;;
5612;SDS011;63463;53.586;9.928;2022-12-18T13:46:20;25.20;;;12.80;;
5612;SDS011;63463;53.586;9.928;2022-12-18T13:51:17;20.10;;;13.00;;
5612;SDS011;63463;53.586;9.928;2022-12-18T13:53:44;22.67;;;12.37;;
5612;SDS011;63463;53.586;9.928;2022-12-18T13:56:21;29.03;;;12.90;;
5612;SDS011;63463;53.586;9.928;2022-12-18T13:59:12;22.47;;;12.80;;
5612;SDS011;63463;53.586;9.928;2022-12-18T14:01:33;20.53;;;11.83;;
5612;SDS011;63463;53.586;9.928;2022-12-18T14:04:09;31.90;;;15.07;;
5612;SDS011;63463;53.586;9.928;2022-12-18T14:06:35;23.43;;;13.67;;
5612;SDS011;63463;53.586;9.928;2022-12-18T14:09:01;24.77;;;13.63;;
5612;SDS011;63463;53.586;9.928;2022-12-18T14:11:28;24.13;;;12.93;;
5612;SDS011;63463;53.586;9.928;2022-12-18T14:13:55;24.47;;;13.17;;
5612;SDS011;63463;53.586;9.928;2022-12-18T14:16:22;28.67;;;13.43;;
5612;SDS011;63463;53.586;9.928;2022-12-18T14:18:55;30.33;;;13.60;;
5612;SDS011;63463;53.586;9.928;2022-12-18T14:21:22;25.53;;;11.90;;
5612;SDS011;63463;53.586;9.928;2022-12-18T14:23:49;26.97;;;12.23;;
5612;SDS011;63463;53.586;9.928;2022-12-18T14:26:22;24.67;;;12.80;;
5612;SDS011;63463;53.586;9.928;2022-12-18T14:28:49;23.70;;;11.93;;
5612;SDS011;63463;53.586;9.928;2022-12-18T14:31:19;26.27;;;12.00;;
5612;SDS011;63463;53.586;9.928;2022-12-18T14:33:45;30.00;;;13.97;;
5612;SDS011;63463;53.586;9.928;2022-12-18T14:36:13;23.43;;;12.27;;
5612;SDS011;63463;53.586;9.928;2022-12-18T14:38:41;28.87;;;14.73;;
5612;SDS011;63463;53.586;9.928;2022-12-18T14:41:11;26.13;;;12.70;;
5612;SDS011;63463;53.586;9.928;2022-12-18T14:43:38;31.70;;;12.70;;
5612;SDS011;63463;53.586;9.928;2022-12-18T14:46:05;24.07;;;12.00;;
5612;SDS011;63463;53.586;9.928;2022-12-18T14:51:02;30.00;;;12.43;;
5612;SDS011;63463;53.586;9.928;2022-12-18T14:53:36;26.00;;;12.97;;
5612;SDS011;63463;53.586;9.928;2022-12-18T14:56:03;22.80;;;12.50;;
5612;SDS011;63463;53.586;9.928;2022-12-18T14:58:29;26.50;;;12.80;;
5612;SDS011;63463;53.586;9.928;2022-12-18T15:00:55;28.63;;;13.77;;
5612;SDS011;63463;53.586;9.928;2022-12-18T15:03:22;31.10;;;14.50;;
5612;SDS011;63463;53.586;9.928;2022-12-18T15:05:48;24.50;;;12.90;;
5612;SDS011;63463;53.586;9.928;2022-12-18T15:08:27;31.73;;;13.90;;
5612;SDS011;63463;53.586;9.928;2022-12-18T15:10:53;32.87;;;13.97;;
5612;SDS011;63463;53.586;9.928;2022-12-18T15:13:23;25.23;;;12.73;;
5612;SDS011;63463;53.586;9.928;2022-12-18T15:15:49;27.83;;;12.97;;
5612;SDS011;63463;53.586;9.928;2022-12-18T15:18:16;31.37;;;13.37;;
5612;SDS011;63463;53.586;9.928;2022-12-18T15:25:58;26.67;;;14.00;;
5612;SDS011;63463;53.586;9.928;2022-12-18T15:28:26;31.13;;;13.83;;
5612;SDS011;63463;53.586;9.928;2022-12-18T15:30:57;32.83;;;12.70;;
5612;SDS011;63463;53.586;9.928;2022-12-18T15:33:24;29.00;;;14.00;;
5612;SDS011;63463;53.586;9.928;2022-12-18T15:35:57;27.17;;;13.37;;
5612;SDS011;63463;53.586;9.928;2022-12-18T15:38:23;28.00;;;13.30;;
5612;SDS011;63463;53.586;9.928;2022-12-18T15:40:49;27.00;;;12.60;;
5612;SDS011;63463;53.586;9.928;2022-12-18T15:43:21;20.57;;;12.27;;
5612;SDS011;63463;53.586;9.928;2022-12-18T15:46:13;27.20;;;12.60;;
5612;SDS011;63463;53.586;9.928;2022-12-18T15:48:40;32.73;;;14.87;;
5612;SDS011;63463;53.586;9.928;2022-12-18T15:51:28;39.47;;;14.27;;
5612;SDS011;63463;53.586;9.928;2022-12-18T15:53:54;31.87;;;14.07;;
5612;SDS011;63463;53.586;9.928;2022-12-18T15:56:20;26.93;;;12.50;;
5612;SDS011;63463;53.586;9.928;2022-12-18T15:59:09;24.63;;;13.30;;
5612;SDS011;63463;53.586;9.928;2022-12-18T16:01:37;28.53;;;13.63;;
5612;SDS011;63463;53.586;9.928;2022-12-18T16:04:03;27.77;;;12.83;;
5612;SDS011;63463;53.586;9.928;2022-12-18T16:06:29;27.03;;;13.30;;
5612;SDS011;63463;53.586;9.928;2022-12-18T16:08:54;31.07;;;14.00;;
5612;SDS011;63463;53.586;9.928;2022-12-18T16:11:24;34.87;;;15.30;;
5612;SDS011;63463;53.586;9.928;2022-12-18T16:14:21;26.70;;;12.43;;
5612;SDS011;63463;53.586;9.928;2022-12-18T16:16:48;36.90;;;14.80;;
5612;SDS011;63463;53.586;9.928;2022-12-18T16:19:15;38.37;;;13.47;;
5612;SDS011;63463;53.586;9.928;2022-12-18T16:21:41;25.07;;;13.97;;
5612;SDS011;63463;53.586;9.928;2022-12-18T16:24:17;32.47;;;12.03;;
5612;SDS011;63463;53.586;9.928;2022-12-18T16:26:44;24.10;;;12.53;;
5612;SDS011;63463;53.586;9.928;2022-12-18T16:29:10;26.17;;;13.40;;